createdAt,value
2019-02-10T00:00:37.732Z,1.00
2019-02-10T00:03:04.447Z,1.30
2019-02-10T00:05:31.144Z,2.10
2019-02-10T00:07:58.036Z,1.83
2019-02-10T00:10:24.664Z,2.07
2019-02-10T00:13:23.722Z,1.70
2019-02-10T00:15:50.304Z,1.80
2019-02-10T00:18:16.800Z,1.73
2019-02-10T00:20:43.424Z,2.37
2019-02-10T00:23:10.220Z,2.00
2019-02-10T00:25:37.138Z,2.23
2019-02-10T00:28:03.627Z,1.50
2019-02-10T00:30:30.158Z,1.40
2019-02-10T00:32:56.704Z,2.03
2019-02-10T00:35:23.172Z,1.53
2019-02-10T00:37:49.721Z,1.80
2019-02-10T00:40:16.485Z,1.80
2019-02-10T00:42:43.231Z,2.03
2019-02-10T00:45:10.029Z,2.13
2019-02-10T00:47:37.719Z,1.60
2019-02-10T00:50:04.505Z,1.57
2019-02-10T00:52:31.111Z,2.43
2019-02-10T00:54:57.620Z,1.80
2019-02-10T00:57:24.309Z,2.10
2019-02-10T00:59:50.792Z,1.77
2019-02-10T01:02:17.321Z,1.23
2019-02-10T01:04:43.838Z,2.33
2019-02-10T01:07:10.446Z,2.40
2019-02-10T01:09:37.042Z,2.03
2019-02-10T01:12:03.559Z,1.93
2019-02-10T01:14:30.124Z,1.80
2019-02-10T01:16:56.672Z,1.87
2019-02-10T01:19:23.162Z,1.83
2019-02-10T01:21:49.821Z,2.57
2019-02-10T01:24:16.371Z,1.57
2019-02-10T01:26:43.056Z,2.33
2019-02-10T01:29:09.690Z,2.47
2019-02-10T01:31:36.331Z,2.13
2019-02-10T01:34:02.973Z,2.20
2019-02-10T01:36:29.596Z,2.40
2019-02-10T01:38:56.527Z,1.50
2019-02-10T01:41:23.004Z,2.27
2019-02-10T01:43:49.832Z,2.33
2019-02-10T01:46:16.305Z,1.67
2019-02-10T01:48:42.909Z,2.23
2019-02-10T01:51:09.543Z,2.67
2019-02-10T01:53:36.382Z,2.03
2019-02-10T01:56:02.881Z,2.03
2019-02-10T01:58:29.661Z,1.80
2019-02-10T02:00:56.179Z,1.77
2019-02-10T02:03:22.996Z,2.40
2019-02-10T02:05:49.541Z,2.20
2019-02-10T02:08:16.022Z,2.10
2019-02-10T02:10:42.891Z,3.20
2019-02-10T02:13:09.358Z,2.00
2019-02-10T02:15:35.892Z,2.63
2019-02-10T02:18:02.431Z,2.20
2019-02-10T02:20:28.966Z,2.50
2019-02-10T02:22:55.531Z,1.57
2019-02-10T02:25:22.134Z,2.23
2019-02-10T02:27:48.649Z,2.50
2019-02-10T02:30:15.207Z,2.10
2019-02-10T02:32:41.893Z,2.30
2019-02-10T02:35:08.729Z,2.23
2019-02-10T02:37:35.353Z,2.17
2019-02-10T02:40:02.232Z,2.53
2019-02-10T02:42:28.724Z,2.23
2019-02-10T02:44:55.255Z,2.33
2019-02-10T02:47:22.119Z,2.20
2019-02-10T02:49:49.190Z,1.93
2019-02-10T02:52:15.695Z,2.17
2019-02-10T02:54:42.229Z,1.83
2019-02-10T02:57:08.733Z,3.10
2019-02-10T02:59:35.290Z,3.27
2019-02-10T03:02:01.795Z,1.63
2019-02-10T03:04:28.357Z,2.53
2019-02-10T03:06:54.906Z,2.00
2019-02-10T03:09:21.538Z,2.30
2019-02-10T03:11:48.413Z,2.00
2019-02-10T03:14:14.930Z,2.00
2019-02-10T03:16:43.842Z,2.30
2019-02-10T03:19:10.414Z,2.20
2019-02-10T03:21:36.911Z,2.10
2019-02-10T03:24:03.819Z,2.17
2019-02-10T03:26:30.509Z,2.00
2019-02-10T03:28:57.070Z,1.93
2019-02-10T03:31:23.666Z,1.67
2019-02-10T03:33:50.177Z,2.43
2019-02-10T03:36:16.725Z,2.57
2019-02-10T03:38:43.368Z,1.87
2019-02-10T03:41:09.857Z,2.10
2019-02-10T03:43:38.405Z,2.57
2019-02-10T03:46:05.227Z,2.17
2019-02-10T03:48:31.933Z,2.23
2019-02-10T03:50:58.668Z,2.17
2019-02-10T03:53:25.790Z,3.03
2019-02-10T03:55:52.855Z,2.23
2019-02-10T03:58:19.604Z,2.67
2019-02-10T04:00:46.653Z,2.30
2019-02-10T04:03:13.343Z,1.90
2019-02-10T04:05:40.088Z,3.30
2019-02-10T04:08:06.662Z,2.37
2019-02-10T04:10:33.150Z,1.83
2019-02-10T04:12:59.854Z,1.90
2019-02-10T04:15:26.636Z,3.00
2019-02-10T04:17:53.773Z,2.03
2019-02-10T04:20:20.282Z,2.53
2019-02-10T04:22:46.763Z,1.87
2019-02-10T04:25:13.623Z,2.53
2019-02-10T04:27:40.197Z,2.07
2019-02-10T04:30:09.212Z,1.67
2019-02-10T04:32:36.090Z,1.87
2019-02-10T04:35:03.068Z,2.23
2019-02-10T04:37:29.909Z,2.20
2019-02-10T04:39:56.678Z,2.07
2019-02-10T04:42:23.527Z,2.70
2019-02-10T04:44:50.093Z,1.87
2019-02-10T04:47:16.740Z,1.80
2019-02-10T04:49:43.258Z,2.10
2019-02-10T04:52:09.821Z,1.93
2019-02-10T04:54:36.314Z,1.70
2019-02-10T04:57:02.897Z,1.73
2019-02-10T04:59:29.437Z,1.80
2019-02-10T05:01:55.887Z,3.27
2019-02-10T05:04:22.427Z,1.80
2019-02-10T05:06:48.984Z,2.00
2019-02-10T05:09:15.850Z,1.57
2019-02-10T05:11:42.344Z,1.70
2019-02-10T05:14:09.220Z,1.70
2019-02-10T05:16:35.714Z,1.70
2019-02-10T05:19:02.331Z,2.10
2019-02-10T05:21:28.833Z,1.77
2019-02-10T05:24:02.973Z,1.57
2019-02-10T05:26:24.374Z,1.67
2019-02-10T05:28:50.843Z,1.37
2019-02-10T05:31:17.824Z,1.90
2019-02-10T05:33:44.330Z,1.73
2019-02-10T05:36:10.922Z,1.50
2019-02-10T05:38:37.717Z,2.37
2019-02-10T05:41:05.129Z,1.40
2019-02-10T05:43:31.677Z,1.47
2019-02-10T05:45:58.215Z,1.70
2019-02-10T05:48:24.785Z,1.57
2019-02-10T05:50:51.323Z,1.57
2019-02-10T05:53:17.845Z,1.90
2019-02-10T05:55:44.324Z,1.40
2019-02-10T05:58:10.857Z,2.03
2019-02-10T06:00:37.381Z,1.47
2019-02-10T06:03:04.623Z,1.33
2019-02-10T06:05:31.344Z,1.33
2019-02-10T06:07:58.210Z,1.77
2019-02-10T06:10:24.714Z,1.50
2019-02-10T06:12:51.693Z,1.33
2019-02-10T06:15:18.183Z,2.07
2019-02-10T06:17:45.155Z,1.60
2019-02-10T06:20:12.250Z,1.53
2019-02-10T06:22:38.818Z,2.10
2019-02-10T06:25:06.009Z,1.70
2019-02-10T06:27:32.861Z,2.37
2019-02-10T06:29:59.404Z,1.00
2019-02-10T06:32:25.981Z,1.50
2019-02-10T06:34:52.486Z,1.30
2019-02-10T06:37:19.093Z,1.77
2019-02-10T06:39:45.681Z,1.27
2019-02-10T06:42:12.636Z,1.43
2019-02-10T06:44:39.140Z,1.20
2019-02-10T06:47:05.923Z,1.43
2019-02-10T06:49:32.563Z,2.10
2019-02-10T06:51:59.207Z,1.87
2019-02-10T06:54:25.982Z,1.30
2019-02-10T06:56:52.518Z,1.50
2019-02-10T06:59:29.613Z,1.33
2019-02-10T07:02:01.593Z,1.40
2019-02-10T07:04:30.101Z,1.50
2019-02-10T07:06:56.756Z,1.40
2019-02-10T07:09:25.866Z,1.20
2019-02-10T07:11:53.173Z,1.80
2019-02-10T07:14:25.630Z,1.23
2019-02-10T07:17:16.248Z,1.10
2019-02-10T07:20:29.840Z,1.70
2019-02-10T07:23:34.385Z,1.30
2019-02-10T07:26:17.860Z,1.10
2019-02-10T07:29:03.888Z,1.17
2019-02-10T07:31:57.231Z,1.70
2019-02-10T07:35:06.014Z,1.33
2019-02-10T07:38:06.386Z,0.90
2019-02-10T07:40:56.898Z,1.07
2019-02-10T07:44:18.229Z,1.10
2019-02-10T07:47:37.398Z,0.97
2019-02-10T07:50:43.751Z,1.33
2019-02-10T07:53:41.601Z,0.90
2019-02-10T07:56:46.262Z,1.17
2019-02-10T07:59:44.117Z,1.37
2019-02-10T08:02:52.504Z,1.43
2019-02-10T08:06:16.437Z,0.80
2019-02-10T08:09:29.551Z,1.20
2019-02-10T08:12:19.782Z,1.40
2019-02-10T08:15:08.102Z,0.93
2019-02-10T08:17:51.031Z,1.20
2019-02-10T08:20:49.652Z,0.80
2019-02-10T08:24:13.395Z,1.00
2019-02-10T08:27:07.067Z,0.97
2019-02-10T08:30:28.127Z,1.30
2019-02-10T08:33:47.224Z,0.93
2019-02-10T08:36:45.301Z,1.27
2019-02-10T08:39:50.584Z,1.27
2019-02-10T08:42:49.722Z,0.43
2019-02-10T08:45:41.629Z,1.10
2019-02-10T08:48:46.069Z,0.90
2019-02-10T08:51:49.347Z,0.83
2019-02-10T08:54:15.970Z,1.10
2019-02-10T08:56:42.859Z,0.97
2019-02-10T08:59:09.430Z,0.80
2019-02-10T09:01:36.394Z,0.63
2019-02-10T09:04:03.016Z,0.70
2019-02-10T09:06:29.751Z,1.00
2019-02-10T09:09:02.457Z,0.60
2019-02-10T09:11:24.974Z,1.07
2019-02-10T09:13:51.526Z,1.10
2019-02-10T09:16:18.141Z,1.03
2019-02-10T09:18:44.678Z,0.90
2019-02-10T09:21:11.807Z,0.80
2019-02-10T09:23:38.607Z,1.13
2019-02-10T09:26:06.012Z,0.80
2019-02-10T09:28:34.200Z,0.53
2019-02-10T09:31:00.958Z,0.90
2019-02-10T09:33:27.580Z,0.63
2019-02-10T09:35:54.198Z,0.90
2019-02-10T09:38:20.770Z,0.60
2019-02-10T09:40:47.394Z,0.80
2019-02-10T09:43:14.448Z,0.90
2019-02-10T09:45:41.149Z,0.80
2019-02-10T09:48:07.785Z,0.80
2019-02-10T09:50:34.444Z,0.80
2019-02-10T09:53:01.093Z,0.70
2019-02-10T09:55:27.693Z,0.97
2019-02-10T09:57:54.704Z,0.67
2019-02-10T10:00:21.332Z,0.90
2019-02-10T10:02:48.396Z,0.80
2019-02-10T10:05:15.050Z,0.80
2019-02-10T10:07:41.854Z,0.70
2019-02-10T10:10:09.801Z,1.00
2019-02-10T10:12:38.636Z,0.90
2019-02-10T10:15:07.103Z,0.87
2019-02-10T10:17:34.005Z,0.80
2019-02-10T10:20:00.748Z,0.67
2019-02-10T10:22:28.000Z,0.90
2019-02-10T10:24:56.852Z,0.53
2019-02-10T10:27:23.464Z,0.60
2019-02-10T10:29:50.028Z,0.70
2019-02-10T10:32:16.882Z,0.50
2019-02-10T10:34:43.473Z,0.60
2019-02-10T10:37:10.133Z,0.93
2019-02-10T10:39:36.661Z,0.87
2019-02-10T10:42:07.701Z,0.60
2019-02-10T10:44:37.460Z,1.00
2019-02-10T10:47:04.100Z,1.10
2019-02-10T10:49:30.948Z,0.93
2019-02-10T10:51:57.671Z,0.90
2019-02-10T10:54:24.211Z,0.90
2019-02-10T10:56:50.758Z,0.83
2019-02-10T10:59:17.559Z,0.97
2019-02-10T11:01:44.152Z,0.80
2019-02-10T11:04:13.358Z,0.73
2019-02-10T11:06:40.112Z,1.03
2019-02-10T11:09:07.149Z,0.80
2019-02-10T11:11:34.164Z,0.97
2019-02-10T11:14:01.244Z,0.90
2019-02-10T11:16:28.225Z,0.73
2019-02-10T11:18:56.224Z,0.80
2019-02-10T11:21:23.070Z,0.70
2019-02-10T11:23:55.280Z,0.80
2019-02-10T11:26:22.468Z,0.70
2019-02-10T11:28:49.971Z,0.90
2019-02-10T11:31:17.262Z,0.90
2019-02-10T11:33:47.041Z,0.70
2019-02-10T11:36:14.082Z,0.70
2019-02-10T11:38:42.910Z,0.70
2019-02-10T11:41:09.490Z,0.83
2019-02-10T11:43:36.406Z,1.00
2019-02-10T11:46:24.247Z,1.10
2019-02-10T11:48:53.013Z,0.87
2019-02-10T11:51:26.570Z,0.60
2019-02-10T11:54:06.713Z,1.07
2019-02-10T11:56:34.169Z,0.90
2019-02-10T11:59:25.463Z,1.17
2019-02-10T12:01:56.636Z,1.13
2019-02-10T12:04:27.201Z,0.90
2019-02-10T12:06:53.885Z,0.70
2019-02-10T12:09:20.846Z,0.97
2019-02-10T12:11:47.595Z,0.80
2019-02-10T12:14:15.733Z,0.93
2019-02-10T12:16:42.884Z,1.03
2019-02-10T12:19:10.061Z,0.93
2019-02-10T12:21:36.735Z,0.80
2019-02-10T12:24:03.588Z,1.00
2019-02-10T12:26:30.346Z,0.97
2019-02-10T12:28:57.068Z,0.73
2019-02-10T12:31:23.807Z,0.90
2019-02-10T12:33:50.545Z,0.83
2019-02-10T12:36:17.554Z,1.10
2019-02-10T12:38:44.418Z,1.00
2019-02-10T12:41:11.498Z,0.90
2019-02-10T12:43:39.201Z,1.00
2019-02-10T12:46:05.968Z,1.03
2019-02-10T12:48:33.129Z,1.03
2019-02-10T12:51:01.351Z,0.73
2019-02-10T12:53:28.668Z,1.03
2019-02-10T12:55:55.347Z,1.10
2019-02-10T12:58:22.285Z,1.10
2019-02-10T13:00:49.047Z,1.00
2019-02-10T13:03:18.290Z,1.10
2019-02-10T13:05:45.410Z,1.67
2019-02-10T13:08:11.998Z,0.90
2019-02-10T13:10:38.626Z,1.30
2019-02-10T13:13:05.905Z,1.00
2019-02-10T13:15:32.695Z,1.13
2019-02-10T13:18:00.005Z,0.97
2019-02-10T13:20:26.757Z,1.20
2019-02-10T13:22:53.483Z,1.20
2019-02-10T13:25:22.049Z,1.07
2019-02-10T13:27:52.916Z,1.07
2019-02-10T13:30:19.994Z,1.03
2019-02-10T13:32:47.826Z,0.90
2019-02-10T13:35:15.220Z,1.27
2019-02-10T13:37:45.273Z,1.20
2019-02-10T13:40:18.372Z,1.00
2019-02-10T13:42:46.210Z,1.00
2019-02-10T13:45:23.308Z,1.00
2019-02-10T13:47:51.541Z,1.00
2019-02-10T13:50:18.440Z,1.10
2019-02-10T13:52:45.211Z,1.00
2019-02-10T13:55:12.053Z,1.10
2019-02-10T13:57:39.314Z,1.13
2019-02-10T14:00:09.788Z,1.03
2019-02-10T14:02:36.439Z,1.33
2019-02-10T14:05:03.658Z,1.33
2019-02-10T14:07:30.401Z,1.10
2019-02-10T14:09:57.018Z,1.23
2019-02-10T14:12:24.287Z,1.40
2019-02-10T14:14:51.184Z,1.20
2019-02-10T14:17:18.206Z,0.93
2019-02-10T14:19:45.303Z,1.37
2019-02-10T14:22:13.031Z,1.07
2019-02-10T14:24:39.899Z,1.30
2019-02-10T14:27:14.108Z,1.30
2019-02-10T14:29:42.231Z,1.13
2019-02-10T14:32:09.019Z,1.20
2019-02-10T14:34:36.215Z,1.10
2019-02-10T14:37:02.900Z,1.30
2019-02-10T14:39:29.533Z,1.30
2019-02-10T14:41:56.235Z,1.20
2019-02-10T14:44:22.837Z,0.97
2019-02-10T14:46:49.802Z,1.00
2019-02-10T14:49:16.619Z,1.20
2019-02-10T14:51:43.312Z,1.27
2019-02-10T14:54:09.871Z,1.00
2019-02-10T14:56:36.696Z,0.90
2019-02-10T14:59:03.290Z,0.90
2019-02-10T15:01:30.229Z,0.90
2019-02-10T15:03:56.945Z,0.90
2019-02-10T15:06:23.771Z,0.80
2019-02-10T15:08:50.396Z,0.80
2019-02-10T15:11:17.092Z,0.60
2019-02-10T15:13:43.778Z,0.70
2019-02-10T15:16:10.428Z,0.60
2019-02-10T15:18:38.185Z,0.50
2019-02-10T15:21:05.372Z,0.70
2019-02-10T15:23:31.907Z,0.60
2019-02-10T15:25:58.769Z,0.60
2019-02-10T15:28:25.495Z,0.97
2019-02-10T15:30:52.200Z,0.83
2019-02-10T15:33:18.919Z,0.90
2019-02-10T15:35:45.869Z,0.60
2019-02-10T15:38:13.403Z,0.80
2019-02-10T15:40:40.755Z,1.10
2019-02-10T15:43:07.686Z,0.93
2019-02-10T15:45:34.548Z,1.00
2019-02-10T15:48:01.212Z,1.00
2019-02-10T15:50:27.818Z,0.83
2019-02-10T15:52:54.482Z,1.30
2019-02-10T15:55:21.439Z,0.90
2019-02-10T15:57:48.101Z,0.70
2019-02-10T16:00:17.202Z,0.70
2019-02-10T16:02:43.872Z,0.80
2019-02-10T16:05:10.527Z,0.80
2019-02-10T16:07:37.437Z,0.90
2019-02-10T16:10:05.261Z,1.10
2019-02-10T16:12:31.957Z,1.23
2019-02-10T16:14:58.551Z,1.33
2019-02-10T16:17:29.141Z,1.50
2019-02-10T16:19:55.685Z,0.80
2019-02-10T16:22:22.286Z,0.93
2019-02-10T16:24:49.928Z,1.20
2019-02-10T16:27:16.579Z,1.03
2019-02-10T16:29:43.084Z,0.70
2019-02-10T16:32:09.726Z,1.10
2019-02-10T16:34:36.409Z,0.60
2019-02-10T16:37:04.954Z,0.50
2019-02-10T16:39:31.883Z,0.30
2019-02-10T16:41:58.426Z,0.40
2019-02-10T16:44:24.992Z,0.50
2019-02-10T16:46:52.005Z,0.10
2019-02-10T16:49:24.632Z,0.37
2019-02-10T16:51:54.986Z,0.40
2019-02-10T16:54:22.793Z,0.30
2019-02-10T16:56:49.807Z,0.50
2019-02-10T16:59:16.410Z,0.30
2019-02-10T17:01:43.472Z,0.20
2019-02-10T17:04:10.249Z,0.20
2019-02-10T17:06:37.013Z,0.20
2019-02-10T17:09:04.361Z,0.20
2019-02-10T17:11:31.310Z,0.37
2019-02-10T17:13:58.127Z,0.30
2019-02-10T17:16:24.700Z,0.30
2019-02-10T17:18:51.250Z,0.37
2019-02-10T17:21:17.821Z,0.20
2019-02-10T17:23:44.552Z,0.20
2019-02-10T17:26:11.111Z,0.23
2019-02-10T17:28:37.812Z,0.17
2019-02-10T17:31:04.339Z,0.20
2019-02-10T17:33:30.943Z,0.33
2019-02-10T17:35:57.463Z,0.20
2019-02-10T17:38:24.021Z,0.20
2019-02-10T17:40:59.432Z,0.30
2019-02-10T17:43:28.150Z,0.30
2019-02-10T17:45:55.113Z,0.30
2019-02-10T17:48:21.789Z,0.13
2019-02-10T17:50:49.563Z,0.40
2019-02-10T17:53:17.472Z,0.20
2019-02-10T17:55:45.483Z,0.30
2019-02-10T17:58:12.209Z,0.20
2019-02-10T18:00:42.841Z,0.20
2019-02-10T18:03:09.470Z,0.30
2019-02-10T18:05:36.229Z,0.17
2019-02-10T18:08:02.947Z,0.20
2019-02-10T18:10:29.711Z,0.30
2019-02-10T18:12:56.292Z,0.30
2019-02-10T18:15:51.219Z,0.47
2019-02-10T18:18:49.674Z,0.20
2019-02-10T18:21:45.096Z,0.20
2019-02-10T18:24:18.313Z,0.37
2019-02-10T18:26:52.097Z,0.50
2019-02-10T18:29:39.581Z,0.20
2019-02-10T18:32:30.792Z,0.20
2019-02-10T18:35:13.873Z,0.20
2019-02-10T18:38:06.126Z,0.17
2019-02-10T18:40:55.159Z,0.30
2019-02-10T18:43:34.226Z,0.20
2019-02-10T18:46:17.717Z,0.20
2019-02-10T18:48:51.108Z,0.47
2019-02-10T18:51:32.695Z,0.43
2019-02-10T18:54:21.537Z,0.27
2019-02-10T18:57:01.074Z,0.20
2019-02-10T18:59:47.539Z,0.20
2019-02-10T19:02:26.209Z,0.23
2019-02-10T19:05:21.509Z,0.23
2019-02-10T19:07:57.733Z,0.40
2019-02-10T19:10:52.025Z,0.37
2019-02-10T19:13:29.160Z,0.20
2019-02-10T19:16:14.177Z,0.20
2019-02-10T19:18:49.045Z,0.20
2019-02-10T19:21:27.818Z,0.23
2019-02-10T19:24:06.465Z,0.20
2019-02-10T19:26:43.886Z,0.30
2019-02-10T19:29:30.498Z,0.20
2019-02-10T19:32:15.633Z,0.30
2019-02-10T19:34:57.896Z,0.17
2019-02-10T19:37:50.796Z,0.40
2019-02-10T19:40:26.404Z,0.30
2019-02-10T19:43:02.006Z,0.23
2019-02-10T19:45:48.188Z,0.30
2019-02-10T19:48:58.735Z,0.40
2019-02-10T19:51:57.671Z,0.30
2019-02-10T19:54:44.571Z,0.20
2019-02-10T19:57:30.208Z,0.23
2019-02-10T20:00:22.488Z,0.20
2019-02-10T20:03:01.378Z,0.20
2019-02-10T20:05:49.680Z,0.20
2019-02-10T20:08:37.530Z,0.23
2019-02-10T20:11:24.289Z,0.10
2019-02-10T20:14:06.216Z,0.20
2019-02-10T20:16:53.716Z,0.30
2019-02-10T20:19:36.618Z,0.30
2019-02-10T20:22:19.151Z,0.20
2019-02-10T20:25:09.840Z,0.30
2019-02-10T20:27:52.884Z,0.20
2019-02-10T20:30:57.080Z,0.20
2019-02-10T20:33:49.086Z,0.30
2019-02-10T20:36:34.356Z,0.20
2019-02-10T20:39:36.087Z,0.30
2019-02-10T20:42:29.813Z,0.20
2019-02-10T20:45:30.601Z,0.20
2019-02-10T20:48:15.405Z,0.30
2019-02-10T20:51:06.050Z,0.20
2019-02-10T20:53:52.494Z,0.20
2019-02-10T20:56:46.578Z,0.20
2019-02-10T20:59:33.814Z,0.20
2019-02-10T21:02:11.628Z,0.20
2019-02-10T21:04:47.548Z,0.23
2019-02-10T21:07:31.049Z,0.20
2019-02-10T21:10:21.787Z,0.13
2019-02-10T21:13:11.880Z,0.10
2019-02-10T21:15:53.542Z,0.23
2019-02-10T21:18:42.755Z,0.20
2019-02-10T21:21:36.558Z,0.20
2019-02-10T21:24:13.684Z,0.20
2019-02-10T21:26:48.759Z,0.20
2019-02-10T21:29:55.977Z,0.20
2019-02-10T21:32:31.264Z,0.10
2019-02-10T21:35:18.414Z,0.30
2019-02-10T21:38:08.404Z,0.10
2019-02-10T21:41:06.396Z,0.20
2019-02-10T21:43:55.362Z,0.30
2019-02-10T21:46:39.687Z,0.10
2019-02-10T21:49:08.763Z,0.20
2019-02-10T21:51:35.526Z,0.30
2019-02-10T21:54:02.591Z,0.20
2019-02-10T21:56:30.134Z,0.13
2019-02-10T21:58:56.716Z,0.10
2019-02-10T22:01:23.359Z,0.20
2019-02-10T22:03:50.010Z,0.10
2019-02-10T22:06:16.765Z,0.10
2019-02-10T22:08:43.348Z,0.10
2019-02-10T22:11:10.036Z,0.10
2019-02-10T22:13:36.870Z,0.20
2019-02-10T22:16:03.643Z,0.10
2019-02-10T22:18:30.361Z,0.10
2019-02-10T22:20:56.882Z,0.20
2019-02-10T22:23:23.567Z,0.10
2019-02-10T22:25:50.165Z,0.20
2019-02-10T22:28:17.081Z,0.20
2019-02-10T22:30:44.039Z,0.10
2019-02-10T22:33:10.876Z,0.20
2019-02-10T22:35:37.914Z,0.10
2019-02-10T22:38:04.637Z,0.10
2019-02-10T22:40:31.607Z,0.10
2019-02-10T22:42:58.586Z,0.20
2019-02-10T22:45:25.150Z,0.10
2019-02-10T22:47:53.908Z,0.20
2019-02-10T22:50:20.515Z,0.10
2019-02-10T22:52:47.069Z,0.20
2019-02-10T22:55:13.651Z,0.10
2019-02-10T22:58:05.655Z,0.30
2019-02-10T23:04:35.356Z,0.33
2019-02-10T23:07:02.265Z,0.20
2019-02-10T23:09:28.970Z,0.10
2019-02-10T23:11:55.745Z,0.10
2019-02-10T23:14:22.548Z,0.10
2019-02-10T23:16:51.136Z,0.20
2019-02-10T23:19:17.849Z,0.10
2019-02-10T23:21:48.642Z,0.20
2019-02-10T23:24:17.640Z,0.10
2019-02-10T23:26:44.322Z,0.10
2019-02-10T23:29:10.840Z,0.20
2019-02-10T23:31:37.706Z,0.10
2019-02-10T23:34:06.135Z,0.17
2019-02-10T23:36:32.606Z,0.10
2019-02-10T23:38:59.245Z,0.10
2019-02-10T23:41:25.745Z,0.10
2019-02-10T23:43:52.274Z,0.10
2019-02-10T23:46:18.788Z,0.10
2019-02-10T23:48:45.443Z,0.10
2019-02-10T23:51:11.980Z,0.10
2019-02-10T23:53:38.835Z,0.10
2019-02-10T23:56:05.329Z,0.20
2019-02-10T23:58:31.872Z,0.10
